»·PEaware :: DAL1784 KABQ-KATL

DAL1784 :: KABQ-KATL

FLIGHT INFORMATION

Flight Status: Arrived
Operator:
Delta Air Lines
More flights by this operator :: More flights under this callsign
Pilot: Colin A. (19898)
Aircraft: MCDONNELL-DOUGLAS MD-82
(MD82)
More flights by this aircraft type
Origin: KABQ Albuquerque Intl Sunport
United States
Destination: KATL Hartsfield-Jackson Atlanta
United States
More flights between these airports :: More routes between these airports
Route: MNZNO3 TXO J74 IRW FSM MEM HUTCC KNSAW RUSSA GLAVN1
File this flight plan on PilotEdge
Remarks: PBN / A1B2 DOF / 180805 REG / N882SB EET / KZFW0048 KZME0122 KZTL0216 OPR / DAL PER / C RMK / TCAS SIMBRIEF
Altitude:
(Current/Filed)
31,000ft
Speed:
(Current/Filed)
457kts
Departed: 04-Aug-18 09:40 PM
Arrived: 05-Aug-18 12:42 AM
Distance/Time
Traveled:
1099nm/3:02
Distance/Time
To Go:
Arrived

Flight Plot

Page will automatically refresh every two minutes.

Flight plan parsing failed; only flown route is shown


Map Options




Map Legend


Flown Route
Filed Route
Departure Airport
Arrival Airport
Navaid (VOR, NDB)
Fix

Horizontal Profiles

Position Reports

Time Latitude Longitude Heading Altitude Ground
Speed
04-Aug-18 21:26 35.047917 -106.617739 174 5364ft 0kts
04-Aug-18 21:27 35.047917 -106.617739 174 5364ft 0kts
04-Aug-18 21:28 35.047917 -106.617739 174 5364ft 0kts
04-Aug-18 21:29 35.047917 -106.617739 174 5364ft 0kts
04-Aug-18 21:30 35.047917 -106.617739 174 5364ft 0kts
04-Aug-18 21:31 35.047917 -106.617739 174 5364ft 0kts
04-Aug-18 21:32 35.047917 -106.617739 174 5364ft 0kts
04-Aug-18 21:33 35.047938 -106.617742 174 5364ft 1kts
04-Aug-18 21:34 35.048293 -106.617406 268 5364ft 2kts
04-Aug-18 21:35 35.048294 -106.617251 270 5364ft 0kts
04-Aug-18 21:36 35.048294 -106.617311 270 5364ft 2kts
04-Aug-18 21:37 35.046612 -106.619582 180 5364ft 19kts
04-Aug-18 21:38 35.045503 -106.620955 219 5364ft 0kts
04-Aug-18 21:39 35.045070 -106.621242 193 5364ft 0kts
04-Aug-18 21:40 35.044353 -106.620007 85 5364ft 0kts
04-Aug-18 21:41 35.044308 -106.617235 91 5364ft 56kts
04-Aug-18 21:42 35.043928 -106.568729 93 5691ft 201kts
04-Aug-18 21:43 35.004010 -106.519751 149 7975ft 233kts
04-Aug-18 21:44 34.932518 -106.512916 183 8994ft 284kts
04-Aug-18 21:45 34.852831 -106.517421 182 9879ft 289kts
04-Aug-18 21:46 34.784333 -106.478789 111 10873ft 310kts
04-Aug-18 21:47 34.784045 -106.370717 91 11616ft 329kts
04-Aug-18 21:48 34.775052 -106.258516 99 12453ft 338kts
04-Aug-18 21:49 34.760575 -106.144227 99 13232ft 346kts
04-Aug-18 21:50 34.753504 -106.025179 92 14534ft 360kts
04-Aug-18 21:51 34.750697 -105.900815 92 16570ft 374kts
04-Aug-18 21:52 34.746395 -105.772113 92 18409ft 386kts
04-Aug-18 21:53 34.742222 -105.639934 92 20026ft 397kts
04-Aug-18 21:54 34.737564 -105.504601 92 21440ft 406kts
04-Aug-18 21:55 34.732566 -105.366279 92 22691ft 413kts
04-Aug-18 21:56 34.727441 -105.225745 92 23755ft 420kts
04-Aug-18 21:57 34.722108 -105.082133 93 24619ft 432kts
04-Aug-18 21:58 34.715238 -104.934438 92 25224ft 442kts
04-Aug-18 21:59 34.709602 -104.784388 91 25856ft 448kts
04-Aug-18 22:00 34.704012 -104.632317 93 26507ft 453kts
04-Aug-18 22:01 34.688856 -104.479694 98 27076ft 458kts
04-Aug-18 22:02 34.670282 -104.325807 97 27604ft 463kts
04-Aug-18 22:03 34.653468 -104.169498 97 28122ft 469kts
04-Aug-18 22:04 34.635758 -104.012502 97 28689ft 472kts
04-Aug-18 22:05 34.617701 -103.853314 97 29164ft 478kts
04-Aug-18 22:06 34.599285 -103.692957 97 29677ft 481kts
04-Aug-18 22:07 34.580670 -103.531674 97 30167ft 484kts
04-Aug-18 22:08 34.561296 -103.370221 97 30788ft 483kts
04-Aug-18 22:09 34.545416 -103.235923 97 31149ft 485kts
04-Aug-18 22:10 34.522419 -103.047590 98 31155ft 483kts
04-Aug-18 22:11 34.505603 -102.913752 97 31153ft 482kts
04-Aug-18 22:12 34.514459 -102.726667 73 31150ft 477kts
04-Aug-18 22:13 34.541920 -102.597726 72 31144ft 476kts
04-Aug-18 22:14 34.572749 -102.440901 74 31142ft 477kts
04-Aug-18 22:15 34.606411 -102.257876 74 31140ft 476kts
04-Aug-18 22:16 34.629935 -102.127119 74 31138ft 476kts
04-Aug-18 22:17 34.658071 -101.971608 74 31135ft 477kts
04-Aug-18 22:18 34.686801 -101.814534 74 31130ft 475kts
04-Aug-18 22:19 34.714322 -101.657623 74 31117ft 475kts
04-Aug-18 22:20 34.742388 -101.500359 74 31111ft 475kts
04-Aug-18 22:21 34.769873 -101.343579 74 31111ft 474kts
04-Aug-18 22:22 34.797281 -101.186923 74 31110ft 473kts
04-Aug-18 22:23 34.824882 -101.030429 74 31107ft 472kts
04-Aug-18 22:24 34.851773 -100.873865 74 31092ft 472kts
04-Aug-18 22:25 34.878339 -100.717415 75 31089ft 472kts
04-Aug-18 22:26 34.904766 -100.560496 75 31087ft 472kts
04-Aug-18 22:27 34.930881 -100.403644 74 31085ft 472kts
04-Aug-18 22:28 34.957297 -100.247100 75 31072ft 472kts
04-Aug-18 22:29 34.983411 -100.090556 74 31067ft 472kts
04-Aug-18 22:30 35.009252 -99.933280 75 31066ft 471kts
04-Aug-18 22:31 35.034696 -99.776887 75 31064ft 472kts
04-Aug-18 22:32 35.059509 -99.619442 75 31063ft 471kts
04-Aug-18 22:33 35.084589 -99.462714 75 31062ft 471kts
04-Aug-18 22:34 35.109583 -99.305193 75 31063ft 470kts
04-Aug-18 22:35 35.134722 -99.148327 75 31065ft 471kts
04-Aug-18 22:36 35.158832 -98.991288 75 31064ft 469kts
04-Aug-18 22:37 35.183100 -98.834816 76 31061ft 470kts
04-Aug-18 22:38 35.206868 -98.678153 76 31058ft 469kts
04-Aug-18 22:39 35.230854 -98.521410 76 31054ft 468kts
04-Aug-18 22:40 35.254790 -98.364385 76 31046ft 468kts
04-Aug-18 22:41 35.277734 -98.207694 76 31042ft 468kts
04-Aug-18 22:42 35.300671 -98.050483 76 31045ft 468kts
04-Aug-18 22:43 35.324009 -97.893944 76 31050ft 466kts
04-Aug-18 22:44 35.346081 -97.737453 77 31049ft 466kts
04-Aug-18 22:45 35.369045 -97.581312 81 31056ft 468kts
04-Aug-18 22:46 35.369588 -97.421555 89 31051ft 468kts
04-Aug-18 22:47 35.370449 -97.262401 86 31053ft 467kts
04-Aug-18 22:48 35.374674 -97.103371 87 31052ft 466kts
04-Aug-18 22:49 35.377760 -96.944774 88 31055ft 465kts
04-Aug-18 22:50 35.380409 -96.786384 88 31055ft 464kts
04-Aug-18 22:51 35.382532 -96.628655 88 31055ft 462kts
04-Aug-18 22:52 35.385445 -96.471397 89 31054ft 462kts
04-Aug-18 22:53 35.387792 -96.314417 89 31054ft 460kts
04-Aug-18 22:54 35.389537 -96.157845 89 31054ft 460kts
04-Aug-18 22:55 35.391255 -96.001367 90 31055ft 459kts
04-Aug-18 22:56 35.392845 -95.845601 91 31056ft 457kts
04-Aug-18 22:57 35.394169 -95.689201 90 31054ft 458kts
04-Aug-18 22:58 35.395373 -95.533645 90 31053ft 457kts
04-Aug-18 22:59 35.396133 -95.377347 90 31052ft 459kts
04-Aug-18 23:00 35.396995 -95.221195 90 31050ft 459kts
04-Aug-18 23:01 35.397950 -95.064684 90 31048ft 459kts
04-Aug-18 23:02 35.398003 -94.908069 91 31051ft 459kts
04-Aug-18 23:03 35.398031 -94.751568 91 31055ft 460kts
04-Aug-18 23:04 35.397855 -94.594764 91 31042ft 460kts
04-Aug-18 23:05 35.395970 -94.438067 92 31015ft 460kts
04-Aug-18 23:06 35.396328 -94.278307 90 30790ft 470kts
04-Aug-18 23:07 35.386709 -94.117821 99 30154ft 470kts
04-Aug-18 23:08 35.372990 -93.962465 96 30581ft 456kts
04-Aug-18 23:09 35.362670 -93.807008 96 31008ft 462kts
04-Aug-18 23:10 35.351502 -93.650886 96 31009ft 459kts
04-Aug-18 23:11 35.340062 -93.495749 97 30992ft 458kts
04-Aug-18 23:12 35.328630 -93.340473 96 30978ft 458kts
04-Aug-18 23:13 35.316790 -93.185849 97 30976ft 457kts
04-Aug-18 23:14 35.304459 -93.030931 96 30976ft 456kts
04-Aug-18 23:15 35.292270 -92.876640 96 30975ft 456kts
04-Aug-18 23:16 35.279950 -92.721676 96 30974ft 456kts
04-Aug-18 23:17 35.267070 -92.567485 96 30971ft 455kts
04-Aug-18 23:18 35.254256 -92.413010 96 30966ft 456kts
04-Aug-18 23:19 35.241543 -92.258891 96 30958ft 455kts
04-Aug-18 23:20 35.228846 -92.104526 97 30955ft 455kts
04-Aug-18 23:21 35.215234 -91.951112 96 30955ft 455kts
04-Aug-18 23:22 35.201913 -91.797626 96 30955ft 454kts
04-Aug-18 23:23 35.188207 -91.643843 97 30955ft 454kts
04-Aug-18 23:24 35.174057 -91.490864 97 30953ft 453kts
04-Aug-18 23:25 35.159934 -91.337253 96 30949ft 454kts
04-Aug-18 23:26 35.145721 -91.184419 96 30944ft 453kts
04-Aug-18 23:27 35.131410 -91.031482 96 30933ft 453kts
04-Aug-18 23:28 35.117083 -90.878188 97 30930ft 452kts
04-Aug-18 23:29 35.102400 -90.725994 96 30927ft 453kts
04-Aug-18 23:30 35.086976 -90.573434 97 30940ft 454kts
04-Aug-18 23:31 35.071707 -90.420190 97 31152ft 424kts
04-Aug-18 23:32 35.056807 -90.274222 97 31042ft 451kts
04-Aug-18 23:33 35.039544 -90.125557 98 30923ft 450kts
04-Aug-18 23:34 35.025032 -89.973128 93 30944ft 451kts
04-Aug-18 23:35 35.003183 -89.822486 102 30946ft 451kts
04-Aug-18 23:36 34.980154 -89.671898 99 30945ft 451kts
04-Aug-18 23:37 34.959811 -89.521367 100 30942ft 451kts
04-Aug-18 23:38 34.937982 -89.370477 100 30938ft 451kts
04-Aug-18 23:39 34.916166 -89.220317 100 30938ft 450kts
04-Aug-18 23:40 34.894329 -89.067480 100 30449ft 455kts
04-Aug-18 23:41 34.872825 -88.918431 101 30911ft 450kts
04-Aug-18 23:42 34.850254 -88.767944 101 30929ft 449kts
04-Aug-18 23:43 34.828069 -88.618187 101 30927ft 449kts
04-Aug-18 23:44 34.805854 -88.468380 101 30928ft 449kts
04-Aug-18 23:45 34.782926 -88.319306 101 30931ft 449kts
04-Aug-18 23:46 34.759860 -88.170103 101 30940ft 449kts
04-Aug-18 23:47 34.736903 -88.020510 101 30952ft 449kts
04-Aug-18 23:48 34.714312 -87.871699 102 30956ft 447kts
04-Aug-18 23:49 34.690835 -87.723409 102 30957ft 447kts
04-Aug-18 23:50 34.667327 -87.574549 102 30957ft 447kts
04-Aug-18 23:51 34.644424 -87.425541 99 30867ft 447kts
04-Aug-18 23:52 34.616769 -87.279519 106 30965ft 447kts
04-Aug-18 23:53 34.587946 -87.133141 103 30951ft 447kts
04-Aug-18 23:54 34.564707 -86.985264 104 30948ft 445kts
04-Aug-18 23:55 34.533592 -86.840055 113 30947ft 442kts
04-Aug-18 23:56 34.491812 -86.699516 105 30946ft 444kts
04-Aug-18 23:57 34.455863 -86.557072 110 30948ft 442kts
04-Aug-18 23:58 34.417536 -86.415340 109 30946ft 441kts
04-Aug-18 23:59 34.380469 -86.273723 109 30946ft 441kts
05-Aug-18 00:00 34.345120 -86.134447 105 30947ft 441kts
05-Aug-18 00:01 34.308064 -85.993590 110 30951ft 440kts
05-Aug-18 00:02 34.269305 -85.852963 113 30958ft 439kts
05-Aug-18 00:03 34.222744 -85.717204 110 30964ft 440kts
05-Aug-18 00:04 34.187153 -85.575425 108 30965ft 440kts
05-Aug-18 00:05 34.149927 -85.434547 109 30962ft 440kts
05-Aug-18 00:06 34.106108 -85.297178 133 29577ft 437kts
05-Aug-18 00:07 33.998810 -85.286174 218 26771ft 422kts
05-Aug-18 00:08 33.976595 -85.417480 280 24087ft 421kts
05-Aug-18 00:09 34.009608 -85.551817 286 21163ft 416kts
05-Aug-18 00:10 34.062249 -85.670835 330 18167ft 411kts
05-Aug-18 00:11 34.160441 -85.636943 61 15176ft 404kts
05-Aug-18 00:12 34.161598 -85.511176 103 13951ft 355kts
05-Aug-18 00:13 34.136267 -85.405065 106 13252ft 310kts
05-Aug-18 00:14 34.115423 -85.305468 104 12251ft 305kts
05-Aug-18 00:15 34.091249 -85.207796 107 12003ft 303kts
05-Aug-18 00:16 34.065797 -85.110578 108 12012ft 303kts
05-Aug-18 00:17 34.025177 -85.024261 136 12020ft 300kts
05-Aug-18 00:18 33.962339 -84.958472 141 12020ft 298kts
05-Aug-18 00:19 33.899249 -84.893900 141 12021ft 297kts
05-Aug-18 00:20 33.836551 -84.829145 141 12021ft 296kts
05-Aug-18 00:21 33.774704 -84.765230 141 12021ft 296kts
05-Aug-18 00:22 33.710313 -84.704170 150 12020ft 293kts
05-Aug-18 00:23 33.639655 -84.655081 152 12022ft 293kts
05-Aug-18 00:24 33.569421 -84.605918 151 12030ft 292kts
05-Aug-18 00:25 33.535055 -84.520725 94 12033ft 304kts
05-Aug-18 00:26 33.536924 -84.419079 91 12030ft 306kts
05-Aug-18 00:27 33.537769 -84.333772 91 12030ft 306kts
05-Aug-18 00:28 33.537983 -84.213911 91 10442ft 308kts
05-Aug-18 00:29 33.537913 -84.115172 91 9950ft 287kts
05-Aug-18 00:30 33.538160 -84.035628 90 8695ft 286kts
05-Aug-18 00:31 33.553377 -83.927715 88 6965ft 280kts
05-Aug-18 00:32 33.555839 -83.850221 85 5710ft 277kts
05-Aug-18 00:33 33.613437 -83.826199 310 4249ft 270kts
05-Aug-18 00:34 33.627028 -83.909418 272 4054ft 256kts
05-Aug-18 00:35 33.633483 -84.008737 267 4048ft 256kts
05-Aug-18 00:36 33.633331 -84.080031 269 4044ft 257kts
05-Aug-18 00:37 33.635630 -84.159168 268 4043ft 223kts
05-Aug-18 00:38 33.634731 -84.228328 268 3911ft 170kts
05-Aug-18 00:39 33.634699 -84.280539 268 2966ft 142kts
05-Aug-18 00:40 33.634752 -84.327303 268 2405ft 140kts
05-Aug-18 00:41 33.634697 -84.373837 267 1637ft 138kts
05-Aug-18 00:42 33.634625 -84.420707 269 1036ft 125kts
05-Aug-18 00:43 33.635769 -84.436646 281 1035ft 19kts
05-Aug-18 00:44 33.637660 -84.438524 275 1035ft 0kts

Navigation Log

Ident Type
Flight plan parsing failed, navigation log unavailable